createdAt,value
2023-05-20T00:01:06.339Z,11.70
2023-05-20T00:03:33.396Z,11.60
2023-05-20T00:06:00.345Z,11.60
2023-05-20T00:08:27.154Z,11.60
2023-05-20T00:10:54.620Z,11.60
2023-05-20T00:13:21.676Z,11.60
2023-05-20T00:15:48.603Z,11.60
2023-05-20T00:18:15.538Z,11.70
2023-05-20T00:20:42.362Z,11.70
2023-05-20T00:23:09.352Z,11.70
2023-05-20T00:25:36.557Z,11.70
2023-05-20T00:28:03.635Z,11.70
2023-05-20T00:30:30.573Z,11.70
2023-05-20T00:32:57.535Z,11.70
2023-05-20T00:35:24.575Z,11.70
2023-05-20T00:37:51.397Z,11.70
2023-05-20T00:40:18.411Z,11.70
2023-05-20T00:42:45.623Z,11.80
2023-05-20T00:45:12.562Z,11.70
2023-05-20T00:47:39.781Z,11.70
2023-05-20T00:50:07.614Z,11.70
2023-05-20T00:52:35.248Z,11.80
2023-05-20T00:55:02.128Z,11.70
2023-05-20T00:57:29.225Z,11.70
2023-05-20T00:59:56.696Z,11.70
2023-05-20T01:02:24.065Z,11.70
2023-05-20T01:04:51.230Z,11.70
2023-05-20T01:07:19.411Z,11.70
2023-05-20T01:09:46.704Z,11.70
2023-05-20T01:12:18.516Z,11.70
2023-05-20T01:15:08.508Z,11.70
2023-05-20T01:17:41.611Z,11.70
2023-05-20T01:20:10.441Z,11.70
2023-05-20T01:22:38.796Z,11.70
2023-05-20T01:25:05.806Z,11.70
2023-05-20T01:27:32.768Z,11.70
2023-05-20T01:29:59.657Z,11.70
2023-05-20T01:32:32.244Z,11.70
2023-05-20T01:35:00.290Z,11.70
2023-05-20T01:37:28.345Z,11.70
2023-05-20T01:39:56.624Z,11.70
2023-05-20T01:42:26.336Z,11.70
2023-05-20T01:44:53.381Z,11.70
2023-05-20T01:47:20.463Z,11.70
2023-05-20T01:49:47.795Z,11.70
2023-05-20T01:52:15.289Z,11.70
2023-05-20T01:54:42.178Z,11.70
2023-05-20T01:57:09.065Z,11.70
2023-05-20T01:59:36.076Z,11.70
2023-05-20T02:02:03.067Z,11.70
2023-05-20T02:04:29.965Z,11.70
2023-05-20T02:06:56.844Z,11.70
2023-05-20T02:09:23.671Z,11.70
2023-05-20T02:11:50.583Z,11.70
2023-05-20T02:14:17.448Z,11.60
2023-05-20T02:16:44.381Z,11.60
2023-05-20T02:19:12.975Z,11.60
2023-05-20T02:21:41.473Z,11.60
2023-05-20T02:24:08.796Z,11.50
2023-05-20T02:26:35.651Z,11.50
2023-05-20T02:29:02.544Z,11.50
2023-05-20T02:31:29.469Z,11.40
2023-05-20T02:33:56.372Z,11.50
2023-05-20T02:36:23.292Z,11.50
2023-05-20T02:38:50.215Z,11.40
2023-05-20T02:41:17.042Z,11.40
2023-05-20T02:43:45.121Z,11.40
2023-05-20T02:46:12.046Z,11.40
2023-05-20T02:48:38.921Z,11.40
2023-05-20T02:51:06.193Z,11.40
2023-05-20T02:53:33.418Z,11.30
2023-05-20T02:56:01.598Z,11.30
2023-05-20T02:58:29.446Z,11.30
2023-05-20T03:00:57.742Z,11.20
2023-05-20T03:03:27.252Z,11.20
2023-05-20T03:05:54.605Z,11.10
2023-05-20T03:08:22.917Z,11.10
2023-05-20T03:10:49.845Z,11.10
2023-05-20T03:13:16.699Z,11.00
2023-05-20T03:15:46.910Z,11.10
2023-05-20T03:18:13.911Z,11.00
2023-05-20T03:20:41.661Z,11.00
2023-05-20T03:23:09.673Z,11.00
2023-05-20T03:25:37.576Z,11.00
2023-05-20T03:28:06.562Z,10.90
2023-05-20T03:30:33.454Z,10.90
2023-05-20T03:33:00.467Z,10.90
2023-05-20T03:35:27.380Z,10.80
2023-05-20T03:37:54.271Z,10.70
2023-05-20T03:40:21.439Z,10.60
2023-05-20T03:42:49.933Z,10.60
2023-05-20T03:45:16.869Z,10.50
2023-05-20T03:47:43.802Z,10.50
2023-05-20T03:50:10.869Z,10.40
2023-05-20T03:52:38.376Z,10.30
2023-05-20T03:55:05.709Z,10.30
2023-05-20T03:57:32.937Z,10.30
2023-05-20T03:59:59.946Z,10.20
2023-05-20T04:02:27.044Z,10.20
2023-05-20T04:04:57.711Z,10.20
2023-05-20T04:07:24.965Z,10.10
2023-05-20T04:09:52.282Z,10.10
2023-05-20T04:12:19.469Z,10.10
2023-05-20T04:14:46.378Z,10.10
2023-05-20T04:17:13.223Z,10.10
2023-05-20T04:19:40.054Z,10.00
2023-05-20T04:22:07.049Z,10.00
2023-05-20T04:24:33.955Z,10.10
2023-05-20T04:27:02.045Z,10.00
2023-05-20T04:29:30.112Z,10.00
2023-05-20T04:31:58.844Z,10.00
2023-05-20T04:34:26.965Z,10.00
2023-05-20T04:36:54.002Z,10.10
2023-05-20T04:39:20.873Z,10.10
2023-05-20T04:41:48.515Z,10.10
2023-05-20T04:44:15.932Z,10.20
2023-05-20T04:46:42.813Z,10.20
2023-05-20T04:49:09.630Z,10.30
2023-05-20T04:51:36.804Z,10.40
2023-05-20T04:54:03.798Z,10.40
2023-05-20T04:56:30.626Z,10.40
2023-05-20T04:58:58.763Z,10.50
2023-05-20T05:01:25.667Z,10.50
2023-05-20T05:03:52.560Z,10.50
2023-05-20T05:06:19.383Z,10.60
2023-05-20T05:08:46.205Z,10.60
2023-05-20T05:11:13.023Z,10.60
2023-05-20T05:13:39.895Z,10.70
2023-05-20T05:16:06.883Z,10.70
2023-05-20T05:18:33.754Z,10.80
2023-05-20T05:21:05.070Z,10.90
2023-05-20T05:23:32.866Z,10.90
2023-05-20T05:25:59.833Z,11.00
2023-05-20T05:28:26.718Z,11.00
2023-05-20T05:30:57.114Z,11.10
2023-05-20T05:33:24.169Z,11.20
2023-05-20T05:35:51.429Z,11.30
2023-05-20T05:38:18.462Z,11.30
2023-05-20T05:40:45.482Z,11.40
2023-05-20T05:43:12.333Z,11.50
2023-05-20T05:45:39.404Z,11.50
2023-05-20T05:48:06.397Z,11.60
2023-05-20T05:50:33.355Z,11.80
2023-05-20T05:53:00.182Z,11.90
2023-05-20T05:55:27.077Z,12.00
2023-05-20T05:57:53.973Z,12.00
2023-05-20T06:00:21.150Z,12.10
2023-05-20T06:02:48.396Z,12.10
2023-05-20T06:05:15.742Z,12.20
2023-05-20T06:07:42.664Z,12.50
2023-05-20T06:10:10.306Z,12.50
2023-05-20T06:12:37.152Z,12.60
2023-05-20T06:15:04.717Z,12.60
2023-05-20T06:17:31.618Z,12.60
2023-05-20T06:19:58.516Z,12.70
2023-05-20T06:22:25.586Z,12.80
2023-05-20T06:24:56.474Z,13.20
2023-05-20T06:27:23.341Z,14.10
2023-05-20T06:29:50.406Z,15.40
2023-05-20T06:32:17.278Z,16.70
2023-05-20T06:34:44.364Z,18.00
2023-05-20T06:37:11.512Z,19.20
2023-05-20T06:39:38.322Z,20.30
2023-05-20T06:42:05.556Z,21.20
2023-05-20T06:44:32.469Z,22.10
2023-05-20T06:46:59.407Z,22.70
2023-05-20T06:49:26.352Z,23.30
2023-05-20T06:51:53.215Z,23.90
2023-05-20T06:54:20.122Z,24.50
2023-05-20T06:56:46.993Z,25.10
2023-05-20T06:59:13.868Z,25.60
2023-05-20T07:01:40.817Z,26.20
2023-05-20T07:04:07.782Z,26.60
2023-05-20T07:06:34.741Z,26.90
2023-05-20T07:09:01.857Z,27.00
2023-05-20T07:11:28.917Z,27.10
2023-05-20T07:13:55.858Z,27.50
2023-05-20T07:16:22.876Z,28.00
2023-05-20T07:18:49.971Z,28.20
2023-05-20T07:21:16.913Z,28.30
2023-05-20T07:23:43.869Z,28.40
2023-05-20T07:26:10.699Z,28.40
2023-05-20T07:28:38.676Z,28.70
2023-05-20T07:31:05.818Z,29.10
2023-05-20T07:33:32.940Z,29.40
2023-05-20T07:35:59.827Z,29.70
2023-05-20T07:38:27.000Z,29.80
2023-05-20T07:40:53.890Z,30.10
2023-05-20T07:43:20.899Z,30.50
2023-05-20T07:45:47.867Z,30.60
2023-05-20T07:48:14.796Z,30.60
2023-05-20T07:50:41.779Z,30.70
2023-05-20T07:53:08.700Z,30.90
2023-05-20T07:55:39.304Z,31.20
2023-05-20T07:58:06.402Z,31.50
2023-05-20T08:00:33.410Z,31.60
2023-05-20T08:03:00.481Z,31.70
2023-05-20T08:05:27.482Z,31.80
2023-05-20T08:07:54.329Z,31.80
2023-05-20T08:10:21.222Z,31.70
2023-05-20T08:12:48.105Z,31.90
2023-05-20T08:15:14.963Z,31.90
2023-05-20T08:17:41.918Z,31.90
2023-05-20T08:20:09.721Z,31.80
2023-05-20T08:22:37.731Z,31.90
2023-05-20T08:25:08.080Z,31.90
2023-05-20T08:27:38.544Z,31.80
2023-05-20T08:30:08.346Z,31.70
2023-05-20T08:32:35.714Z,31.60
2023-05-20T08:35:03.739Z,31.50
2023-05-20T08:37:30.785Z,31.50
2023-05-20T08:39:57.658Z,31.50
2023-05-20T08:42:25.174Z,31.60
2023-05-20T08:44:57.358Z,31.50
2023-05-20T08:47:24.538Z,31.50
2023-05-20T08:49:51.570Z,31.40
2023-05-20T08:52:22.202Z,31.40
2023-05-20T08:54:50.379Z,31.30
2023-05-20T08:57:17.830Z,31.20
2023-05-20T08:59:46.966Z,31.30
2023-05-20T09:02:14.596Z,31.20
2023-05-20T09:04:42.107Z,31.10
2023-05-20T09:07:09.289Z,31.10
2023-05-20T09:09:36.339Z,31.00
2023-05-20T09:12:03.774Z,30.80
2023-05-20T09:14:31.946Z,30.60
2023-05-20T09:16:59.693Z,30.40
2023-05-20T09:19:26.798Z,30.00
2023-05-20T09:21:55.086Z,29.70
2023-05-20T09:24:26.425Z,29.60
2023-05-20T09:26:53.748Z,29.70
2023-05-20T09:29:21.900Z,29.70
2023-05-20T09:31:49.998Z,29.80
2023-05-20T09:34:17.559Z,29.50
2023-05-20T09:36:45.301Z,29.30
2023-05-20T09:39:17.172Z,29.10
2023-05-20T09:42:07.169Z,28.80
2023-05-20T09:44:35.087Z,28.40
2023-05-20T09:47:03.061Z,28.10
2023-05-20T09:49:32.451Z,27.70
2023-05-20T09:52:01.302Z,27.50
2023-05-20T09:54:30.009Z,27.30
2023-05-20T09:56:59.945Z,27.10
2023-05-20T09:59:27.943Z,27.00
2023-05-20T10:01:54.873Z,27.10
2023-05-20T10:04:23.274Z,27.10
2023-05-20T10:07:06.723Z,27.10
2023-05-20T10:09:36.414Z,27.10
2023-05-20T10:12:47.749Z,27.00
2023-05-20T10:15:24.438Z,26.80
2023-05-20T10:18:09.218Z,26.90
2023-05-20T10:20:47.364Z,27.10
2023-05-20T10:23:24.741Z,27.10
2023-05-20T10:25:55.853Z,26.70
2023-05-20T10:28:36.080Z,26.30
2023-05-20T10:31:14.480Z,26.30
2023-05-20T10:33:43.660Z,26.70
2023-05-20T10:36:10.994Z,27.50
2023-05-20T10:38:37.874Z,28.10
2023-05-20T10:41:14.051Z,28.40
2023-05-20T10:43:41.096Z,28.90
2023-05-20T10:46:31.910Z,29.40
2023-05-20T10:49:03.728Z,30.00
2023-05-20T10:51:32.240Z,30.80
2023-05-20T10:53:59.311Z,31.60
2023-05-20T10:56:27.423Z,32.50
2023-05-20T10:58:54.930Z,32.50
2023-05-20T11:01:26.874Z,32.10
2023-05-20T11:03:57.884Z,31.90
2023-05-20T11:06:29.425Z,32.10
2023-05-20T11:09:03.333Z,32.50
2023-05-20T11:11:30.551Z,32.40
2023-05-20T11:13:57.658Z,31.90
2023-05-20T11:16:24.643Z,31.60
2023-05-20T11:18:51.826Z,30.90
2023-05-20T11:21:20.043Z,30.10
2023-05-20T11:23:47.073Z,29.20
2023-05-20T11:26:13.921Z,28.40
2023-05-20T11:28:41.034Z,27.60
2023-05-20T11:31:08.097Z,26.90
2023-05-20T11:33:34.953Z,26.30
2023-05-20T11:36:03.554Z,26.00
2023-05-20T11:38:32.644Z,26.50
2023-05-20T11:40:59.667Z,27.00
2023-05-20T11:43:26.708Z,27.70
2023-05-20T11:46:01.150Z,28.20
2023-05-20T11:48:28.275Z,28.40
2023-05-20T11:50:56.995Z,28.80
2023-05-20T11:53:24.790Z,29.70
2023-05-20T11:55:57.941Z,30.20
2023-05-20T11:58:28.979Z,30.50
2023-05-20T12:01:02.314Z,31.20
2023-05-20T12:03:36.835Z,31.80
2023-05-20T12:06:04.287Z,32.60
2023-05-20T12:08:31.317Z,33.20
2023-05-20T12:10:58.222Z,33.80
2023-05-20T12:13:25.079Z,34.20
2023-05-20T12:15:51.985Z,34.40
2023-05-20T12:18:18.798Z,34.60
2023-05-20T12:20:45.704Z,34.70
2023-05-20T12:23:12.560Z,34.20
2023-05-20T12:25:39.424Z,33.10
2023-05-20T12:28:11.371Z,32.20
2023-05-20T12:30:38.356Z,31.40
2023-05-20T12:33:05.320Z,31.00
2023-05-20T12:35:43.024Z,31.10
2023-05-20T12:38:13.493Z,31.30
2023-05-20T12:40:44.553Z,31.60
2023-05-20T12:43:11.373Z,32.10
2023-05-20T12:45:38.278Z,32.00
2023-05-20T12:48:07.791Z,31.90
2023-05-20T12:50:35.058Z,32.00
2023-05-20T12:53:02.217Z,32.30
2023-05-20T12:55:29.100Z,32.70
2023-05-20T12:57:56.346Z,32.50
2023-05-20T13:00:23.535Z,31.90
2023-05-20T13:02:50.503Z,31.10
2023-05-20T13:05:17.488Z,30.40
2023-05-20T13:07:45.052Z,29.70
2023-05-20T13:10:12.071Z,28.90
2023-05-20T13:12:39.062Z,28.40
2023-05-20T13:15:07.763Z,27.80
2023-05-20T13:17:34.777Z,27.40
2023-05-20T13:20:01.686Z,26.90
2023-05-20T13:22:28.614Z,26.50
2023-05-20T13:24:55.583Z,26.10
2023-05-20T13:27:22.422Z,25.70
2023-05-20T13:29:49.464Z,25.30
2023-05-20T13:32:16.411Z,25.00
2023-05-20T13:34:43.533Z,24.80
2023-05-20T13:37:10.481Z,24.50
2023-05-20T13:39:37.595Z,24.40
2023-05-20T13:42:04.529Z,24.30
2023-05-20T13:44:32.740Z,24.20
2023-05-20T13:46:59.967Z,24.10
2023-05-20T13:49:27.126Z,24.00
2023-05-20T13:51:53.998Z,23.90
2023-05-20T13:54:21.832Z,23.70
2023-05-20T13:56:49.096Z,23.60
2023-05-20T13:59:16.232Z,23.50
2023-05-20T14:01:46.632Z,23.40
2023-05-20T14:04:13.578Z,23.20
2023-05-20T14:06:40.780Z,23.10
2023-05-20T14:09:09.045Z,23.00
2023-05-20T14:11:37.425Z,23.00
2023-05-20T14:14:04.528Z,22.90
2023-05-20T14:16:32.708Z,22.90
2023-05-20T14:18:59.769Z,22.80
2023-05-20T14:21:26.692Z,22.80
2023-05-20T14:23:53.713Z,22.70
2023-05-20T14:26:21.529Z,22.70
2023-05-20T14:28:48.433Z,22.70
2023-05-20T14:31:15.624Z,22.80
2023-05-20T14:33:42.510Z,22.70
2023-05-20T14:36:10.366Z,22.70
2023-05-20T14:38:37.361Z,22.60
2023-05-20T14:41:04.407Z,22.40
2023-05-20T14:43:32.178Z,22.20
2023-05-20T14:45:59.453Z,22.10
2023-05-20T14:48:34.468Z,21.90
2023-05-20T14:51:01.370Z,21.80
2023-05-20T14:53:34.328Z,21.70
2023-05-20T14:56:02.575Z,21.60
2023-05-20T14:58:29.415Z,21.60
2023-05-20T15:00:56.931Z,21.50
2023-05-20T15:03:24.430Z,21.40
2023-05-20T15:05:51.522Z,21.30
2023-05-20T15:08:18.412Z,21.20
2023-05-20T15:10:45.397Z,21.30
2023-05-20T15:13:12.408Z,21.30
2023-05-20T15:15:44.022Z,21.40
2023-05-20T15:18:18.642Z,21.60
2023-05-20T15:20:45.437Z,21.70
2023-05-20T15:23:12.519Z,21.90
2023-05-20T15:25:39.394Z,22.10
2023-05-20T15:28:06.394Z,22.10
2023-05-20T15:30:40.460Z,22.00
2023-05-20T15:33:07.556Z,21.90
2023-05-20T15:35:34.454Z,21.70
2023-05-20T15:40:47.518Z,21.40
2023-05-20T15:43:14.430Z,21.30
2023-05-20T15:45:41.530Z,21.30
2023-05-20T15:48:08.865Z,21.20
2023-05-20T15:50:37.183Z,21.10
2023-05-20T15:53:08.096Z,21.00
2023-05-20T15:55:35.899Z,21.00
2023-05-20T15:58:02.856Z,20.90
2023-05-20T16:00:29.826Z,20.90
2023-05-20T16:02:56.928Z,20.90
2023-05-20T16:05:25.495Z,20.80
2023-05-20T16:07:53.401Z,20.80
2023-05-20T16:10:20.588Z,20.80
2023-05-20T16:12:50.496Z,20.70
2023-05-20T16:15:17.343Z,20.70
2023-05-20T16:17:44.393Z,20.70
2023-05-20T16:20:11.884Z,20.60
2023-05-20T16:22:38.820Z,20.50
2023-05-20T16:25:06.029Z,20.50
2023-05-20T16:27:32.998Z,20.40
2023-05-20T16:29:59.975Z,20.40
2023-05-20T16:32:27.160Z,20.40
2023-05-20T16:34:54.804Z,20.30
2023-05-20T16:37:21.630Z,20.30
2023-05-20T16:39:48.538Z,20.20
2023-05-20T16:42:15.432Z,20.00
2023-05-20T16:44:42.336Z,19.80
2023-05-20T16:47:09.357Z,19.60
2023-05-20T16:49:39.059Z,19.40
2023-05-20T16:52:06.541Z,19.20
2023-05-20T16:54:38.333Z,19.00
2023-05-20T16:57:12.501Z,18.90
2023-05-20T16:59:39.412Z,18.80
2023-05-20T17:02:06.530Z,18.70
2023-05-20T17:04:33.477Z,18.60
2023-05-20T17:07:01.840Z,18.60
2023-05-20T17:09:31.906Z,18.50
2023-05-20T17:11:58.776Z,18.50
2023-05-20T17:14:28.726Z,18.50
2023-05-20T17:16:55.830Z,18.50
2023-05-20T17:19:22.831Z,18.40
2023-05-20T17:21:49.841Z,18.40
2023-05-20T17:24:16.722Z,18.40
2023-05-20T17:26:43.655Z,18.30
2023-05-20T17:29:10.773Z,18.30
2023-05-20T17:31:37.639Z,18.30
2023-05-20T17:34:04.567Z,18.30
2023-05-20T17:36:31.541Z,18.30
2023-05-20T17:38:59.468Z,18.30
2023-05-20T17:41:27.908Z,18.30
2023-05-20T17:43:54.821Z,18.30
2023-05-20T17:46:28.521Z,18.40
2023-05-20T17:48:56.807Z,18.40
2023-05-20T17:51:23.902Z,18.40
2023-05-20T17:53:50.819Z,18.40
2023-05-20T17:56:17.782Z,18.40
2023-05-20T17:58:45.136Z,18.30
2023-05-20T18:01:12.146Z,18.30
2023-05-20T18:03:39.961Z,18.30
2023-05-20T18:06:07.258Z,18.20
2023-05-20T18:08:34.224Z,18.20
2023-05-20T18:11:01.178Z,18.20
2023-05-20T18:13:28.075Z,18.20
2023-05-20T18:15:54.987Z,18.10
2023-05-20T18:18:21.872Z,18.10
2023-05-20T18:20:48.839Z,18.00
2023-05-20T18:23:15.976Z,18.00
2023-05-20T18:25:43.020Z,17.90
2023-05-20T18:28:11.139Z,17.90
2023-05-20T18:30:37.974Z,17.80
2023-05-20T18:33:13.620Z,17.80
2023-05-20T18:35:40.625Z,17.70
2023-05-20T18:38:07.705Z,17.70
2023-05-20T18:40:34.838Z,17.70
2023-05-20T18:43:01.885Z,17.60
2023-05-20T18:45:29.874Z,17.60
2023-05-20T18:47:59.344Z,17.50
2023-05-20T18:50:26.688Z,17.50
2023-05-20T18:52:53.569Z,17.50
2023-05-20T18:55:20.506Z,17.50
2023-05-20T18:57:47.466Z,17.40
2023-05-20T19:00:18.353Z,17.40
2023-05-20T19:02:45.294Z,17.40
2023-05-20T19:05:13.304Z,17.40
2023-05-20T19:07:40.957Z,17.30
2023-05-20T19:10:08.596Z,17.30
2023-05-20T19:12:35.533Z,17.30
2023-05-20T19:15:05.053Z,17.20
2023-05-20T19:17:31.932Z,17.20
2023-05-20T19:20:08.514Z,17.10
2023-05-20T19:22:35.783Z,17.10
2023-05-20T19:25:02.807Z,17.10
2023-05-20T19:27:29.766Z,17.00
2023-05-20T19:29:56.786Z,17.00
2023-05-20T19:32:29.067Z,16.90
2023-05-20T19:34:55.912Z,16.80
2023-05-20T19:37:23.402Z,16.70
2023-05-20T19:39:50.374Z,16.70
2023-05-20T19:42:17.284Z,16.60
2023-05-20T19:44:46.600Z,16.50
2023-05-20T19:47:13.875Z,16.50
2023-05-20T19:49:40.792Z,16.40
2023-05-20T19:52:07.704Z,16.40
2023-05-20T19:54:34.707Z,16.40
2023-05-20T19:57:01.922Z,16.40
2023-05-20T19:59:28.846Z,16.40
2023-05-20T20:02:18.129Z,16.30
2023-05-20T20:04:51.897Z,16.30
2023-05-20T20:07:19.502Z,16.20
2023-05-20T20:09:48.321Z,16.20
2023-05-20T20:12:15.330Z,16.20
2023-05-20T20:14:42.166Z,16.10
2023-05-20T20:17:13.517Z,16.10
2023-05-20T20:19:40.549Z,16.10
2023-05-20T20:22:07.613Z,16.10
2023-05-20T20:24:34.603Z,16.10
2023-05-20T20:27:02.045Z,16.00
2023-05-20T20:29:28.932Z,16.00
2023-05-20T20:31:56.014Z,16.00
2023-05-20T20:34:23.018Z,16.00
2023-05-20T20:36:51.303Z,16.00
2023-05-20T20:39:28.025Z,15.90
2023-05-20T20:41:55.197Z,15.90
2023-05-20T20:44:38.953Z,15.90
2023-05-20T20:47:06.000Z,15.90
2023-05-20T20:49:33.479Z,15.80
2023-05-20T20:52:00.343Z,15.70
2023-05-20T20:54:27.152Z,15.60
2023-05-20T20:56:56.498Z,15.60
2023-05-20T20:59:26.526Z,15.50
2023-05-20T21:01:54.121Z,15.40
2023-05-20T21:04:30.149Z,15.30
2023-05-20T21:06:59.040Z,15.30
2023-05-20T21:09:28.705Z,15.20
2023-05-20T21:11:57.109Z,15.10
2023-05-20T21:14:24.173Z,15.10
2023-05-20T21:16:51.112Z,15.10
2023-05-20T21:19:18.178Z,15.10
2023-05-20T21:21:45.328Z,15.10
2023-05-20T21:24:12.207Z,15.00
2023-05-20T21:26:39.214Z,15.10
2023-05-20T21:29:07.316Z,15.20
2023-05-20T21:31:34.276Z,15.20
2023-05-20T21:34:01.184Z,15.20
2023-05-20T21:36:28.100Z,15.20
2023-05-20T21:38:55.083Z,15.20
2023-05-20T21:41:23.402Z,15.20
2023-05-20T21:43:50.526Z,15.20
2023-05-20T21:46:17.505Z,15.30
2023-05-20T21:48:44.445Z,15.30
2023-05-20T21:51:11.422Z,15.30
2023-05-20T21:53:38.283Z,15.30
2023-05-20T21:56:05.495Z,15.40
2023-05-20T21:58:32.381Z,15.40
2023-05-20T22:00:59.301Z,15.40
2023-05-20T22:03:26.246Z,15.40
2023-05-20T22:05:53.201Z,15.40
2023-05-20T22:08:20.137Z,15.40
2023-05-20T22:10:47.106Z,15.40
2023-05-20T22:13:17.036Z,15.40
2023-05-20T22:15:43.983Z,15.40
2023-05-20T22:18:12.336Z,15.40
2023-05-20T22:20:40.452Z,15.40
2023-05-20T22:23:07.466Z,15.40
2023-05-20T22:25:34.695Z,15.40
2023-05-20T22:28:04.538Z,15.40
2023-05-20T22:30:31.609Z,15.40
2023-05-20T22:32:59.220Z,15.40
2023-05-20T22:35:26.313Z,15.40
2023-05-20T22:37:54.893Z,15.40
2023-05-20T22:40:21.883Z,15.40
2023-05-20T22:42:48.930Z,15.30
2023-05-20T22:45:15.851Z,15.30
2023-05-20T22:47:42.873Z,15.30
2023-05-20T22:50:10.056Z,15.30
2023-05-20T22:52:36.965Z,15.30
2023-05-20T22:55:03.997Z,15.30
2023-05-20T22:57:30.953Z,15.30
2023-05-20T22:59:57.988Z,15.30
2023-05-20T23:02:24.887Z,15.20
2023-05-20T23:04:51.944Z,15.20
2023-05-20T23:07:19.548Z,15.20
2023-05-20T23:09:47.192Z,15.20
2023-05-20T23:12:21.370Z,15.20
2023-05-20T23:14:51.713Z,15.20
2023-05-20T23:17:18.653Z,15.10
2023-05-20T23:19:47.080Z,15.10
2023-05-20T23:22:14.228Z,15.10
2023-05-20T23:24:41.452Z,15.10
2023-05-20T23:27:08.259Z,15.10
2023-05-20T23:29:35.118Z,15.10
2023-05-20T23:32:01.975Z,15.10
2023-05-20T23:34:31.025Z,15.10
2023-05-20T23:36:57.862Z,15.00
2023-05-20T23:39:24.695Z,15.00
2023-05-20T23:41:51.648Z,15.10
2023-05-20T23:44:18.649Z,15.00
2023-05-20T23:46:45.576Z,15.00
2023-05-20T23:49:12.582Z,15.00
2023-05-20T23:51:39.424Z,15.00
2023-05-20T23:54:06.537Z,15.00
2023-05-20T23:56:33.400Z,15.00
2023-05-20T23:59:00.658Z,14.90
